sensor_id;sensor_type;location;lat;lon;timestamp;pressure;altitude;pressure_sealevel;temperature;humidity
34983;BME280;21187;50.976;13.720;2023-04-01T00:00:24;96473.50;;;11.99;57.50
34983;BME280;21187;50.976;13.720;2023-04-01T00:05:26;96471.94;;;11.98;57.81
34983;BME280;21187;50.976;13.720;2023-04-01T00:10:28;96470.84;;;11.92;57.83
34983;BME280;21187;50.976;13.720;2023-04-01T00:15:30;96477.44;;;11.91;57.90
34983;BME280;21187;50.976;13.720;2023-04-01T00:20:32;96467.75;;;11.90;58.35
34983;BME280;21187;50.976;13.720;2023-04-01T00:25:34;96470.84;;;11.88;58.18
34983;BME280;21187;50.976;13.720;2023-04-01T00:30:36;96464.69;;;11.84;58.47
34983;BME280;21187;50.976;13.720;2023-04-01T00:35:39;96475.94;;;11.82;58.59
34983;BME280;21187;50.976;13.720;2023-04-01T00:40:44;96473.19;;;11.86;58.59
34983;BME280;21187;50.976;13.720;2023-04-01T00:45:48;96465.88;;;11.79;58.93
34983;BME280;21187;50.976;13.720;2023-04-01T00:51:28;96472.50;;;11.75;59.07
34983;BME280;21187;50.976;13.720;2023-04-01T00:56:34;96472.16;;;11.69;59.27
34983;BME280;21187;50.976;13.720;2023-04-01T01:01:37;96469.06;;;11.67;59.71
34983;BME280;21187;50.976;13.720;2023-04-01T01:07:29;96481.84;;;11.66;59.82
34983;BME280;21187;50.976;13.720;2023-04-01T01:12:09;96468.66;;;11.72;59.12
34983;BME280;21187;50.976;13.720;2023-04-01T01:27:23;96459.66;;;11.82;58.51
34983;BME280;21187;50.976;13.720;2023-04-01T01:38:01;96462.81;;;11.77;58.49
34983;BME280;21187;50.976;13.720;2023-04-01T01:43:08;96465.56;;;11.70;58.66
34983;BME280;21187;50.976;13.720;2023-04-01T01:48:12;96465.56;;;11.70;58.54
34983;BME280;21187;50.976;13.720;2023-04-01T01:53:14;96467.91;;;11.68;58.70
34983;BME280;21187;50.976;13.720;2023-04-01T01:58:31;96464.00;;;11.69;58.41
34983;BME280;21187;50.976;13.720;2023-04-01T02:03:36;96465.19;;;11.68;58.65
34983;BME280;21187;50.976;13.720;2023-04-01T02:13:44;96460.53;;;11.72;58.05
34983;BME280;21187;50.976;13.720;2023-04-01T02:18:49;96457.81;;;11.72;58.05
34983;BME280;21187;50.976;13.720;2023-04-01T02:23:54;96457.81;;;11.72;58.03
34983;BME280;21187;50.976;13.720;2023-04-01T02:28:59;96469.00;;;11.74;57.81
34983;BME280;21187;50.976;13.720;2023-04-01T02:34:03;96472.47;;;11.78;57.68
34983;BME280;21187;50.976;13.720;2023-04-01T02:39:06;96464.72;;;11.80;57.50
34983;BME280;21187;50.976;13.720;2023-04-01T02:44:10;96480.19;;;11.83;57.31
34983;BME280;21187;50.976;13.720;2023-04-01T02:49:12;96477.84;;;11.86;57.23
34983;BME280;21187;50.976;13.720;2023-04-01T02:54:14;96480.19;;;11.83;57.44
34983;BME280;21187;50.976;13.720;2023-04-01T02:59:16;96483.28;;;11.82;57.16
34983;BME280;21187;50.976;13.720;2023-04-01T03:04:19;96486.00;;;11.82;57.14
34983;BME280;21187;50.976;13.720;2023-04-01T03:09:21;96480.59;;;11.82;57.06
34983;BME280;21187;50.976;13.720;2023-04-01T03:14:23;96496.50;;;11.76;56.70
34983;BME280;21187;50.976;13.720;2023-04-01T03:19:25;96495.78;;;11.72;56.90
34983;BME280;21187;50.976;13.720;2023-04-01T03:24:27;96491.91;;;11.70;56.89
34983;BME280;21187;50.976;13.720;2023-04-01T03:29:29;96487.28;;;11.66;56.99
34983;BME280;21187;50.976;13.720;2023-04-01T03:34:31;96487.31;;;11.63;56.96
34983;BME280;21187;50.976;13.720;2023-04-01T03:39:33;96494.59;;;11.73;56.47
34983;BME280;21187;50.976;13.720;2023-04-01T03:44:35;96493.41;;;11.74;56.28
34983;BME280;21187;50.976;13.720;2023-04-01T03:49:37;96500.38;;;11.75;56.39
34983;BME280;21187;50.976;13.720;2023-04-01T03:54:39;96503.50;;;11.77;56.21
34983;BME280;21187;50.976;13.720;2023-04-01T03:59:41;96511.25;;;11.75;56.09
34983;BME280;21187;50.976;13.720;2023-04-01T04:04:43;96506.19;;;11.77;56.13
34983;BME280;21187;50.976;13.720;2023-04-01T04:09:45;96507.31;;;11.83;55.97
34983;BME280;21187;50.976;13.720;2023-04-01T04:14:48;96508.09;;;11.84;55.92
34983;BME280;21187;50.976;13.720;2023-04-01T04:19:50;96519.72;;;11.81;55.68
34983;BME280;21187;50.976;13.720;2023-04-01T04:24:53;96527.47;;;11.82;55.70
34983;BME280;21187;50.976;13.720;2023-04-01T04:29:55;96534.81;;;11.86;55.49
34983;BME280;21187;50.976;13.720;2023-04-01T04:34:57;96541.78;;;11.87;55.41
34983;BME280;21187;50.976;13.720;2023-04-01T04:39:59;96535.63;;;11.79;55.42
34983;BME280;21187;50.976;13.720;2023-04-01T04:45:01;96540.66;;;11.77;55.55
34983;BME280;21187;50.976;13.720;2023-04-01T04:50:04;96545.34;;;11.76;55.30
34983;BME280;21187;50.976;13.720;2023-04-01T04:55:07;96542.22;;;11.74;55.39
34983;BME280;21187;50.976;13.720;2023-04-01T05:00:09;96546.91;;;11.74;55.25
34983;BME280;21187;50.976;13.720;2023-04-01T05:05:22;96555.41;;;11.76;55.23
34983;BME280;21187;50.976;13.720;2023-04-01T05:10:24;96560.44;;;11.77;55.55
34983;BME280;21187;50.976;13.720;2023-04-01T05:15:26;96570.09;;;11.78;55.57
34983;BME280;21187;50.976;13.720;2023-04-01T05:20:29;96570.09;;;11.78;55.75
34983;BME280;21187;50.976;13.720;2023-04-01T05:25:31;96573.19;;;11.80;55.83
34983;BME280;21187;50.976;13.720;2023-04-01T05:30:33;96573.19;;;11.80;55.84
34983;BME280;21187;50.976;13.720;2023-04-01T05:35:40;96575.47;;;11.89;55.87
34983;BME280;21187;50.976;13.720;2023-04-01T05:40:42;96585.94;;;11.87;55.97
34983;BME280;21187;50.976;13.720;2023-04-01T05:45:44;96584.03;;;11.88;56.11
34983;BME280;21187;50.976;13.720;2023-04-01T05:50:49;96573.19;;;11.84;56.20
34983;BME280;21187;50.976;13.720;2023-04-01T05:55:51;96586.72;;;11.88;56.10
34983;BME280;21187;50.976;13.720;2023-04-01T06:01:00;96584.00;;;11.95;55.99
34983;BME280;21187;50.976;13.720;2023-04-01T06:06:20;96580.88;;;12.00;55.70
34983;BME280;21187;50.976;13.720;2023-04-01T06:39:11;96598.81;;;12.39;54.83
34983;BME280;21187;50.976;13.720;2023-04-01T06:55:46;96602.03;;;12.72;53.47
34983;BME280;21187;50.976;13.720;2023-04-01T07:01:20;96607.31;;;12.87;53.36
34983;BME280;21187;50.976;13.720;2023-04-01T07:11:34;96618.91;;;12.91;53.40
34983;BME280;21187;50.976;13.720;2023-04-01T07:17:20;96623.91;;;12.96;53.33
34983;BME280;21187;50.976;13.720;2023-04-01T07:27:38;96632.69;;;13.11;52.70
34983;BME280;21187;50.976;13.720;2023-04-01T07:32:45;96629.56;;;13.12;52.60
34983;BME280;21187;50.976;13.720;2023-04-01T07:54:59;96645.13;;;13.08;52.10
34983;BME280;21187;50.976;13.720;2023-04-01T08:05:37;96644.25;;;13.57;52.13
34983;BME280;21187;50.976;13.720;2023-04-01T08:11:04;96650.78;;;13.63;51.88
34983;BME280;21187;50.976;13.720;2023-04-01T08:16:25;96650.00;;;13.93;51.59
34983;BME280;21187;50.976;13.720;2023-04-01T08:21:49;96662.34;;;14.29;49.85
34983;BME280;21187;50.976;13.720;2023-04-01T08:26:56;96661.63;;;14.52;48.49
34983;BME280;21187;50.976;13.720;2023-04-01T08:32:11;96651.66;;;14.14;49.13
34983;BME280;21187;50.976;13.720;2023-04-01T08:37:19;96657.25;;;14.04;50.33
34983;BME280;21187;50.976;13.720;2023-04-01T08:42:31;96664.94;;;14.67;49.21
34983;BME280;21187;50.976;13.720;2023-04-01T09:04:13;96667.38;;;14.58;48.12
34983;BME280;21187;50.976;13.720;2023-04-01T09:25:51;96683.13;;;14.46;48.49
34983;BME280;21187;50.976;13.720;2023-04-01T10:36:56;96706.09;;;14.96;48.35
34983;BME280;21187;50.976;13.720;2023-04-01T10:42:34;96708.72;;;15.04;47.99
34983;BME280;21187;50.976;13.720;2023-04-01T11:21:27;96705.06;;;15.58;46.95
34983;BME280;21187;50.976;13.720;2023-04-01T11:26:43;96691.97;;;15.69;46.66
34983;BME280;21187;50.976;13.720;2023-04-01T11:32:14;96697.44;;;15.69;47.02
34983;BME280;21187;50.976;13.720;2023-04-01T11:38:04;96696.16;;;15.54;47.52
34983;BME280;21187;50.976;13.720;2023-04-01T11:43:29;96708.28;;;15.29;48.25
34983;BME280;21187;50.976;13.720;2023-04-01T11:49:33;96696.16;;;15.54;48.00
34983;BME280;21187;50.976;13.720;2023-04-01T11:55:06;96694.34;;;16.07;46.93
34983;BME280;21187;50.976;13.720;2023-04-01T12:05:52;96687.50;;;15.99;46.75
34983;BME280;21187;50.976;13.720;2023-04-01T12:11:15;96693.50;;;16.47;46.08
34983;BME280;21187;50.976;13.720;2023-04-01T12:21:52;96689.06;;;16.86;44.23
34983;BME280;21187;50.976;13.720;2023-04-01T12:27:16;96700.44;;;16.85;43.36
34983;BME280;21187;50.976;13.720;2023-04-01T12:32:39;96696.06;;;16.87;44.19
34983;BME280;21187;50.976;13.720;2023-04-01T12:49:34;96721.63;;;15.67;45.26
34983;BME280;21187;50.976;13.720;2023-04-01T13:11:13;96721.75;;;16.04;46.15
34983;BME280;21187;50.976;13.720;2023-04-01T13:16:31;96712.03;;;16.39;44.67
34983;BME280;21187;50.976;13.720;2023-04-01T13:22:07;96721.97;;;16.83;44.05
34983;BME280;21187;50.976;13.720;2023-04-01T13:27:30;96724.38;;;16.97;43.55
34983;BME280;21187;50.976;13.720;2023-04-01T13:43:14;96736.47;;;16.79;43.52
34983;BME280;21187;50.976;13.720;2023-04-01T13:48:39;96731.00;;;16.79;43.78
34983;BME280;21187;50.976;13.720;2023-04-01T14:15:26;96734.31;;;16.91;42.96
34983;BME280;21187;50.976;13.720;2023-04-01T14:32:11;96743.00;;;16.86;42.56
34983;BME280;21187;50.976;13.720;2023-04-01T14:43:01;96753.56;;;16.84;42.22
34983;BME280;21187;50.976;13.720;2023-04-01T14:48:37;96767.53;;;16.53;42.80
34983;BME280;21187;50.976;13.720;2023-04-01T14:53:44;96775.84;;;16.29;43.48
34983;BME280;21187;50.976;13.720;2023-04-01T14:58:57;96760.44;;;16.19;43.79
34983;BME280;21187;50.976;13.720;2023-04-01T15:04:25;96771.06;;;16.33;43.67
34983;BME280;21187;50.976;13.720;2023-04-01T15:31:29;96789.16;;;15.87;44.20
34983;BME280;21187;50.976;13.720;2023-04-01T15:36:37;96796.16;;;15.88;44.64
34983;BME280;21187;50.976;13.720;2023-04-01T15:47:33;96810.63;;;15.85;44.80
34983;BME280;21187;50.976;13.720;2023-04-01T15:58:32;96820.59;;;15.47;45.76
34983;BME280;21187;50.976;13.720;2023-04-01T16:05:20;96824.16;;;15.44;45.58
34983;BME280;21187;50.976;13.720;2023-04-01T16:10:13;96825.91;;;15.07;45.87
34983;BME280;21187;50.976;13.720;2023-04-01T16:25:44;96844.38;;;14.96;46.60
34983;BME280;21187;50.976;13.720;2023-04-01T16:30:58;96846.38;;;14.92;46.99
34983;BME280;21187;50.976;13.720;2023-04-01T16:36:21;96857.19;;;14.99;46.86
34983;BME280;21187;50.976;13.720;2023-04-01T16:41:29;96864.28;;;14.93;47.23
34983;BME280;21187;50.976;13.720;2023-04-01T16:46:38;96874.75;;;14.98;47.36
34983;BME280;21187;50.976;13.720;2023-04-01T16:57:19;96887.78;;;14.48;48.86
34983;BME280;21187;50.976;13.720;2023-04-01T17:02:35;96895.78;;;14.63;48.68
34983;BME280;21187;50.976;13.720;2023-04-01T17:08:07;96899.91;;;14.78;48.65
34983;BME280;21187;50.976;13.720;2023-04-01T17:24:21;96922.59;;;14.99;48.17
34983;BME280;21187;50.976;13.720;2023-04-01T17:35:16;96929.97;;;15.02;48.40
34983;BME280;21187;50.976;13.720;2023-04-01T17:46:05;96936.59;;;15.01;48.73
34983;BME280;21187;50.976;13.720;2023-04-01T17:51:17;96948.78;;;14.93;48.74
34983;BME280;21187;50.976;13.720;2023-04-01T17:56:35;96943.41;;;14.86;48.94
34983;BME280;21187;50.976;13.720;2023-04-01T18:07:12;96958.31;;;14.77;49.32
34983;BME280;21187;50.976;13.720;2023-04-01T18:23:26;96974.16;;;14.52;49.98
34983;BME280;21187;50.976;13.720;2023-04-01T18:44:47;96994.44;;;14.43;50.67
34983;BME280;21187;50.976;13.720;2023-04-01T18:50:11;97001.06;;;14.42;50.74
34983;BME280;21187;50.976;13.720;2023-04-01T18:55:31;97008.88;;;14.40;50.83
34983;BME280;21187;50.976;13.720;2023-04-01T19:00:39;97018.31;;;14.32;50.97
34983;BME280;21187;50.976;13.720;2023-04-01T19:05:48;97023.81;;;14.25;51.25
34983;BME280;21187;50.976;13.720;2023-04-01T19:21:42;97023.47;;;14.19;51.29
34983;BME280;21187;50.976;13.720;2023-04-01T19:38:02;97046.84;;;14.13;51.51
34983;BME280;21187;50.976;13.720;2023-04-01T19:59:15;97059.28;;;14.14;51.55
34983;BME280;21187;50.976;13.720;2023-04-01T20:09:50;97076.44;;;14.07;51.71
34983;BME280;21187;50.976;13.720;2023-04-01T20:14:57;97085.38;;;14.08;52.07
34983;BME280;21187;50.976;13.720;2023-04-01T20:25:16;97103.69;;;14.00;52.08
34983;BME280;21187;50.976;13.720;2023-04-01T20:30:39;97106.09;;;13.94;51.88
34983;BME280;21187;50.976;13.720;2023-04-01T20:57:19;97125.59;;;13.86;52.52
34983;BME280;21187;50.976;13.720;2023-04-01T21:07:55;97135.69;;;13.81;52.61
34983;BME280;21187;50.976;13.720;2023-04-01T21:13:03;97145.41;;;13.79;52.33
34983;BME280;21187;50.976;13.720;2023-04-01T21:34:31;97162.53;;;13.79;52.84
34983;BME280;21187;50.976;13.720;2023-04-01T22:06:59;97185.16;;;13.51;53.22
34983;BME280;21187;50.976;13.720;2023-04-01T22:17:58;97193.38;;;13.37;53.58
34983;BME280;21187;50.976;13.720;2023-04-01T22:23:26;97201.13;;;13.31;53.57
34983;BME280;21187;50.976;13.720;2023-04-01T22:28:38;97206.59;;;13.24;53.97
34983;BME280;21187;50.976;13.720;2023-04-01T22:33:46;97214.38;;;13.14;54.01
34983;BME280;21187;50.976;13.720;2023-04-01T22:44:26;97225.25;;;12.86;54.29
34983;BME280;21187;50.976;13.720;2023-04-01T22:49:39;97229.13;;;12.70;54.60
34983;BME280;21187;50.976;13.720;2023-04-01T22:54:50;97229.50;;;12.65;54.73
34983;BME280;21187;50.976;13.720;2023-04-01T23:00:14;97241.13;;;12.47;54.81
34983;BME280;21187;50.976;13.720;2023-04-01T23:05:18;97246.09;;;12.24;55.57
34983;BME280;21187;50.976;13.720;2023-04-01T23:10:39;97263.13;;;12.13;55.55
34983;BME280;21187;50.976;13.720;2023-04-01T23:15:44;97262.72;;;12.11;55.51
34983;BME280;21187;50.976;13.720;2023-04-01T23:26:12;97277.72;;;11.91;55.71
34983;BME280;21187;50.976;13.720;2023-04-01T23:36:58;97287.66;;;11.65;55.97
34983;BME280;21187;50.976;13.720;2023-04-01T23:42:01;97302.31;;;11.57;56.00
34983;BME280;21187;50.976;13.720;2023-04-01T23:47:06;97312.78;;;11.55;55.91
34983;BME280;21187;50.976;13.720;2023-04-01T23:52:16;97320.84;;;11.47;56.21
34983;BME280;21187;50.976;13.720;2023-04-01T23:57:22;97329.75;;;11.44;56.24
